Time;durP1;ratioP1;P1;durP2;ratioP2;P2;SDS_P1;SDS_P2;PMS_P1;PMS_P2;Temp;Humidity;BMP_temperature;BMP_pressure;BME280_temperature;BME280_humidity;BME280_pressure;Samples;Min_cycle;Max_cycle;Signal;HPM_P1;HPM_P2
2021/08/06 00:01:18;;;;;;;13.48;5.60;;;;;;;30.94;35.03;92960.41;4983884;28;20030;-76
2021/08/06 00:03:44;;;;;;;19.10;6.13;;;;;;;30.88;35.53;92951.25;4982642;28;20060;-75
2021/08/06 00:06:09;;;;;;;19.55;6.32;;;;;;;30.97;35.72;92954.09;4982721;28;20633;-75
2021/08/06 00:08:35;;;;;;;20.77;7.05;;;;;;;30.93;36.13;92945.25;4981781;28;20120;-76
2021/08/06 00:11:02;;;;;;;20.55;7.45;;;;;;;30.99;34.36;92949.72;4982207;28;21140;-75
2021/08/06 00:13:28;;;;;;;22.60;7.30;;;;;;;31.07;34.17;92936.66;4986493;28;20019;-75
2021/08/06 00:15:54;;;;;;;23.80;6.18;;;;;;;31.06;33.92;92935.13;4983667;28;20523;-73
2021/08/06 00:18:20;;;;;;;14.13;7.18;;;;;;;30.93;36.27;92920.72;4987431;28;20448;-75
2021/08/06 00:20:45;;;;;;;25.58;6.85;;;;;;;30.91;36.25;92939.47;4986028;28;20038;-75
2021/08/06 00:23:11;;;;;;;21.27;6.53;;;;;;;30.83;35.22;92938.16;4987607;28;20046;-75
2021/08/06 00:25:37;;;;;;;19.05;6.18;;;;;;;30.78;34.98;92931.31;4984614;28;20037;-75
2021/08/06 00:28:02;;;;;;;15.82;6.72;;;;;;;30.77;36.41;92929.00;4983909;28;20494;-75
2021/08/06 00:30:28;;;;;;;17.23;7.40;;;;;;;30.75;36.68;92925.94;4986057;28;20431;-76
2021/08/06 00:32:55;;;;;;;18.55;6.72;;;;;;;30.76;36.55;92927.47;4984005;28;20042;-76
2021/08/06 00:35:20;;;;;;;16.98;7.00;;;;;;;30.73;35.82;92931.06;4987108;28;20543;-75
2021/08/06 00:37:46;;;;;;;17.50;6.18;;;;;;;30.69;35.88;92928.44;4985687;28;20031;-75
2021/08/06 00:40:12;;;;;;;15.18;6.50;;;;;;;30.60;36.60;92919.38;4988439;28;20029;-75
2021/08/06 00:42:37;;;;;;;13.35;6.25;;;;;;;30.63;37.16;92921.25;4985820;28;20053;-76
2021/08/06 00:45:04;;;;;;;10.45;5.80;;;;;;;30.65;36.80;92922.34;4987140;28;20041;-75
2021/08/06 00:47:30;;;;;;;14.60;7.00;;;;;;;30.63;35.66;92907.63;4989900;28;20042;-75
2021/08/06 00:49:56;;;;;;;16.40;6.63;;;;;;;30.51;35.70;92904.44;4988692;28;20037;-76
2021/08/06 00:52:22;;;;;;;16.75;6.20;;;;;;;30.40;36.87;92903.97;4989654;28;20068;-75
2021/08/06 00:54:48;;;;;;;23.13;7.97;;;;;;;30.19;36.61;92901.13;4985697;28;21527;-75
2021/08/06 00:57:15;;;;;;;18.35;6.97;;;;;;;30.22;37.53;92913.88;4988470;28;20261;-75
2021/08/06 00:59:41;;;;;;;20.48;7.40;;;;;;;30.21;36.48;92899.50;4989746;28;20361;-76
2021/08/06 01:02:16;;;;;;;17.35;8.07;;;;;;;30.26;36.27;92898.94;4988000;28;20257;-76
2021/08/06 01:05:06;;;;;;;32.53;8.57;;;;;;;30.36;35.38;92897.88;4987800;28;20030;-75
2021/08/06 01:07:41;;;;;;;22.83;8.50;;;;;;;30.33;34.89;92909.66;4989357;28;20025;-75
2021/08/06 01:10:10;;;;;;;20.48;7.93;;;;;;;30.30;35.07;92907.78;4990137;28;20413;-75
2021/08/06 01:12:59;;;;;;;18.23;6.88;;;;;;;30.21;34.79;92899.50;4986283;28;21091;-75
2021/08/06 01:15:25;;;;;;;19.77;6.78;;;;;;;30.15;35.01;92922.28;4989907;28;20596;-75
2021/08/06 01:17:52;;;;;;;22.48;8.65;;;;;;;30.13;34.95;92914.53;4989480;28;20073;-75
2021/08/06 01:20:44;;;;;;;21.98;7.85;;;;;;;30.07;35.14;92938.81;4985024;28;20061;-75
2021/08/06 01:23:23;;;;;;;13.40;6.53;;;;;;;29.99;35.50;92939.44;4990776;28;20544;-75
2021/08/06 01:25:59;;;;;;;18.15;7.00;;;;;;;30.01;35.49;92940.53;4988487;28;20123;-75
2021/08/06 01:28:46;;;;;;;17.77;6.93;;;;;;;30.11;35.21;92930.53;4990152;28;20061;-75
2021/08/06 01:31:13;;;;;;;14.25;6.18;;;;;;;29.95;35.37;92914.28;4984492;28;20046;-75
2021/08/06 01:33:39;;;;;;;16.23;6.53;;;;;;;30.06;35.25;92912.00;4988870;28;20501;-75
2021/08/06 01:36:05;;;;;;;19.60;7.78;;;;;;;30.03;35.26;92910.91;4990046;28;20290;-75
2021/08/06 01:38:31;;;;;;;17.58;7.20;;;;;;;30.12;35.12;92926.63;4988874;28;20026;-75
2021/08/06 01:41:05;;;;;;;25.95;7.78;;;;;;;30.13;35.25;92920.75;4988833;28;20129;-75
2021/08/06 01:44:07;;;;;;;15.95;6.18;;;;;;;30.26;34.77;92928.16;4988963;28;20028;-75
2021/08/06 01:46:48;;;;;;;19.05;6.78;;;;;;;30.25;35.00;92930.13;4986627;28;20054;-75
2021/08/06 01:49:17;;;;;;;16.13;6.60;;;;;;;30.21;34.90;92926.75;4988724;28;20062;-75
2021/08/06 01:51:46;;;;;;;15.43;5.95;;;;;;;30.17;34.93;92931.53;4989233;28;20062;-75
2021/08/06 01:54:13;;;;;;;16.98;6.32;;;;;;;30.13;34.95;92925.41;4986923;28;20045;-75
2021/08/06 01:56:40;;;;;;;14.60;6.97;;;;;;;30.07;35.42;92927.16;4985877;28;20468;-75
2021/08/06 01:59:06;;;;;;;21.23;7.15;;;;;;;30.04;35.58;92928.03;4986467;28;20421;-75
2021/08/06 02:01:33;;;;;;;18.33;6.88;;;;;;;30.01;35.22;92913.28;4986861;28;20033;-75
2021/08/06 02:03:59;;;;;;;18.40;6.68;;;;;;;29.82;35.80;92902.53;4988303;28;20042;-76
2021/08/06 02:06:24;;;;;;;16.35;6.72;;;;;;;29.69;36.28;92902.50;4985981;28;20072;-76
2021/08/06 02:08:50;;;;;;;23.60;7.13;;;;;;;29.56;36.29;92928.91;4987477;28;20150;-75
2021/08/06 02:11:18;;;;;;;15.13;6.53;;;;;;;29.43;36.68;92917.19;4986509;28;20124;-75
2021/08/06 02:13:43;;;;;;;23.05;8.40;;;;;;;29.36;36.89;92923.59;4989587;28;20022;-76
2021/08/06 02:16:10;;;;;;;22.00;6.75;;;;;;;29.23;37.02;92911.84;4986367;28;20827;-75
2021/08/06 02:18:37;;;;;;;20.40;6.38;;;;;;;29.14;37.41;92906.25;4988743;28;20166;-75
2021/08/06 02:21:10;;;;;;;24.35;7.05;;;;;;;29.11;37.28;92901.66;4987707;28;20045;-75
2021/08/06 02:23:37;;;;;;;21.55;7.00;;;;;;;29.19;37.15;92906.50;4986984;28;20535;-75
2021/08/06 02:26:06;;;;;;;22.38;6.57;;;;;;;29.17;37.42;92910.84;4985711;28;20049;-76
2021/08/06 02:28:35;;;;;;;19.08;6.88;;;;;;;29.03;37.86;92908.47;4989448;28;20041;-75
2021/08/06 02:31:00;;;;;;;13.43;5.97;;;;;;;29.11;37.36;92901.66;4988168;28;20118;-76
2021/08/06 02:33:27;;;;;;;20.58;6.55;;;;;;;29.10;37.78;92913.72;4986088;28;20038;-76
2021/08/06 02:35:53;;;;;;;15.10;5.75;;;;;;;28.77;38.15;92902.88;4987954;28;20027;-75
2021/08/06 02:38:23;;;;;;;15.52;7.07;;;;;;;28.88;38.29;92910.00;4987878;28;20371;-74
2021/08/06 02:40:50;;;;;;;18.55;7.20;;;;;;;28.91;37.96;92907.19;4986308;28;20030;-76
2021/08/06 02:43:17;;;;;;;15.68;6.15;;;;;;;28.81;38.15;92903.56;4987689;28;20113;-75
2021/08/06 02:45:42;;;;;;;17.20;6.90;;;;;;;28.50;39.06;92890.66;4987393;28;20073;-75
2021/08/06 02:48:07;;;;;;;21.38;5.93;;;;;;;28.63;38.95;92892.31;4987136;28;20088;-75
2021/08/06 02:50:33;;;;;;;27.48;7.75;;;;;;;28.70;38.70;92900.28;4986673;28;20039;-75
2021/08/06 02:52:58;;;;;;;21.20;6.50;;;;;;;28.68;38.98;92897.25;4986210;28;20054;-76
2021/08/06 02:55:24;;;;;;;11.07;4.65;;;;;;;28.69;38.82;92903.41;4989961;28;20018;-75
2021/08/06 02:57:49;;;;;;;19.05;6.72;;;;;;;28.61;39.18;92900.13;4982782;28;20049;-75
2021/08/06 03:00:15;;;;;;;20.90;5.40;;;;;;;28.39;39.08;92869.19;4988599;28;20049;-75
2021/08/06 03:02:40;;;;;;;19.02;6.35;;;;;;;28.60;39.01;92906.72;4985793;28;20705;-75
2021/08/06 03:05:06;;;;;;;17.08;5.88;;;;;;;28.62;39.28;92909.81;4986744;28;20046;-76
2021/08/06 03:07:32;;;;;;;19.60;5.80;;;;;;;28.46;39.00;92901.63;4985884;28;20451;-76
2021/08/06 03:09:58;;;;;;;16.15;6.13;;;;;;;28.40;39.07;92930.47;4995664;28;20038;-76
2021/08/06 03:12:23;;;;;;;13.80;5.15;;;;;;;28.18;39.35;92929.41;4986970;28;20409;-75
2021/08/06 03:14:49;;;;;;;15.65;5.10;;;;;;;28.11;39.33;92932.22;4985590;28;20118;-75
2021/08/06 03:17:14;;;;;;;20.98;5.78;;;;;;;28.09;39.55;92932.69;4988954;28;20042;-76
2021/08/06 03:19:39;;;;;;;17.02;4.82;;;;;;;28.01;39.40;92926.59;4984086;28;20114;-75
2021/08/06 03:22:05;;;;;;;12.50;4.72;;;;;;;27.87;39.94;92932.31;4988811;28;20026;-75
2021/08/06 03:24:31;;;;;;;17.48;5.15;;;;;;;27.71;41.03;92950.50;4988114;28;20037;-75
2021/08/06 03:26:56;;;;;;;13.13;4.80;;;;;;;27.42;42.84;92961.06;4986572;28;20505;-75
2021/08/06 03:29:21;;;;;;;15.18;5.80;;;;;;;27.22;43.69;92952.13;4989013;28;20049;-75
2021/08/06 03:31:47;;;;;;;14.60;5.72;;;;;;;27.29;44.44;92989.97;4986479;28;20022;-75
2021/08/06 03:34:12;;;;;;;18.42;7.07;;;;;;;26.90;45.35;93006.84;4985801;28;20129;-75
2021/08/06 03:36:38;;;;;;;18.27;5.20;;;;;;;26.69;46.73;93026.88;4986898;28;20563;-74
2021/08/06 03:39:04;;;;;;;14.20;4.80;;;;;;;26.34;48.34;93047.06;4987430;28;20087;-75
2021/08/06 03:41:29;;;;;;;12.93;5.40;;;;;;;26.13;49.71;93047.28;4984381;28;20437;-75
2021/08/06 03:43:55;;;;;;;10.52;5.55;;;;;;;26.19;49.89;93073.50;4985809;28;20107;-75
2021/08/06 03:46:21;;;;;;;16.42;5.35;;;;;;;26.09;50.53;93070.94;4988144;28;20030;-76
2021/08/06 03:48:46;;;;;;;16.48;5.72;;;;;;;25.96;50.96;93067.19;4984525;28;20041;-75
2021/08/06 03:51:12;;;;;;;14.48;5.55;;;;;;;26.01;51.61;93070.22;4987883;28;20030;-76
2021/08/06 03:53:37;;;;;;;8.63;4.60;;;;;;;26.06;51.21;93060.91;4986974;28;20042;-75
2021/08/06 03:56:03;;;;;;;9.43;4.60;;;;;;;26.04;50.72;93044.31;4985133;28;20055;-75
2021/08/06 03:58:28;;;;;;;12.30;5.40;;;;;;;25.96;51.82;93040.88;4985754;28;20026;-74
2021/08/06 04:00:53;;;;;;;13.18;5.00;;;;;;;25.71;51.89;93038.44;4982474;28;20144;-75
2021/08/06 04:03:19;;;;;;;16.23;5.63;;;;;;;25.63;53.77;93028.09;4985610;28;20556;-75
2021/08/06 04:05:44;;;;;;;14.02;5.18;;;;;;;25.81;54.12;93023.25;4987078;28;20097;-76
2021/08/06 04:08:10;;;;;;;14.10;4.68;;;;;;;25.49;55.50;93011.97;4984564;28;20038;-75
2021/08/06 04:10:37;;;;;;;8.82;5.18;;;;;;;25.64;54.76;93016.88;4985797;28;20067;-75
2021/08/06 04:13:02;;;;;;;13.98;5.35;;;;;;;25.36;55.93;93017.84;4984923;28;20022;-75
2021/08/06 04:15:28;;;;;;;10.20;5.55;;;;;;;25.37;54.89;93008.59;4984682;28;20508;-75
2021/08/06 04:17:54;;;;;;;5.85;4.00;;;;;;;25.45;54.19;93012.00;4986251;28;20502;-75
2021/08/06 04:20:19;;;;;;;9.27;4.53;;;;;;;25.53;53.89;93010.00;4984297;28;20052;-75
2021/08/06 04:22:45;;;;;;;17.05;5.63;;;;;;;25.00;57.71;93016.63;4984983;28;20073;-75
2021/08/06 04:25:11;;;;;;;11.85;5.32;;;;;;;24.94;57.86;93023.63;4986068;28;20026;-75
2021/08/06 04:27:37;;;;;;;16.55;6.25;;;;;;;25.17;58.51;93031.19;4984145;28;20041;-75
2021/08/06 04:30:05;;;;;;;12.55;5.45;;;;;;;25.28;57.82;93043.44;4985134;28;20042;-75
2021/08/06 04:32:30;;;;;;;12.00;5.47;;;;;;;25.55;59.16;93034.75;4986105;28;20400;-75
2021/08/06 04:34:57;;;;;;;10.75;5.32;;;;;;;25.54;59.50;93041.28;4986269;28;20037;-75
2021/08/06 04:37:22;;;;;;;9.65;5.82;;;;;;;25.65;58.54;93033.88;4984358;28;20472;-76
2021/08/06 04:39:48;;;;;;;9.68;5.25;;;;;;;25.74;59.23;93036.88;4983928;28;20034;-75
2021/08/06 04:42:14;;;;;;;15.57;5.88;;;;;;;25.91;58.60;93038.63;4983408;28;20088;-75
2021/08/06 04:44:40;;;;;;;10.82;5.55;;;;;;;26.03;57.72;93037.34;4982313;28;20425;-75
2021/08/06 04:47:06;;;;;;;18.00;6.10;;;;;;;26.13;58.13;93041.88;4985365;28;20413;-76
2021/08/06 04:49:31;;;;;;;11.57;5.47;;;;;;;26.19;57.35;93027.47;4981127;28;20030;-76
2021/08/06 04:51:57;;;;;;;9.68;5.70;;;;;;;26.25;57.22;93017.00;4983715;28;20042;-75
2021/08/06 04:54:22;;;;;;;6.80;5.03;;;;;;;26.37;57.12;93037.38;4984406;28;20072;-75
2021/08/06 04:56:48;;;;;;;11.38;5.75;;;;;;;26.28;57.71;93027.81;4982315;28;20046;-75
2021/08/06 04:59:14;;;;;;;9.25;5.50;;;;;;;26.19;58.42;93024.75;4982927;28;20034;-75
2021/08/06 05:01:39;;;;;;;9.60;5.50;;;;;;;26.33;58.43;93042.06;4980656;28;20038;-75
2021/08/06 05:04:05;;;;;;;11.57;5.05;;;;;;;26.39;57.67;93043.16;4984005;28;20488;-75
2021/08/06 05:06:30;;;;;;;12.60;5.72;;;;;;;26.19;57.69;93032.88;4983939;28;20496;-74
2021/08/06 05:08:56;;;;;;;11.63;4.75;;;;;;;26.05;57.37;93051.22;4987105;28;20121;-75
2021/08/06 05:11:22;;;;;;;14.30;5.38;;;;;;;25.53;59.07;93047.88;4984655;28;20046;-75
2021/08/06 05:13:47;;;;;;;10.77;4.93;;;;;;;25.44;60.94;93065.34;5000439;28;20040;-74
2021/08/06 05:16:13;;;;;;;10.82;5.07;;;;;;;25.39;59.78;93059.59;4985167;28;20511;-74
2021/08/06 05:18:38;;;;;;;13.43;4.97;;;;;;;25.51;59.30;93063.75;4985222;28;20042;-74
2021/08/06 05:21:04;;;;;;;10.07;4.47;;;;;;;25.56;60.49;93074.16;4984290;28;20255;-76
2021/08/06 05:23:30;;;;;;;11.48;5.40;;;;;;;25.54;61.19;93054.81;4983559;28;20045;-75
2021/08/06 05:25:56;;;;;;;10.65;4.65;;;;;;;25.75;60.30;93070.91;4985886;28;20432;-75
2021/08/06 05:28:21;;;;;;;9.63;5.15;;;;;;;25.80;59.22;93070.47;4983456;28;20099;-75
2021/08/06 05:30:46;;;;;;;12.55;4.70;;;;;;;25.93;58.72;93078.84;4985815;28;20038;-74
2021/08/06 05:33:12;;;;;;;13.85;5.30;;;;;;;25.99;58.81;93086.13;4988153;28;20161;-73
2021/08/06 05:35:39;;;;;;;14.57;5.88;;;;;;;26.06;58.97;93086.03;4982037;28;20053;-75
2021/08/06 05:38:04;;;;;;;11.25;4.82;;;;;;;26.18;58.24;93093.66;4990328;28;20093;-74
2021/08/06 05:40:30;;;;;;;10.20;5.40;;;;;;;26.16;58.34;93084.38;4986781;28;20121;-75
2021/08/06 05:42:56;;;;;;;12.85;4.93;;;;;;;26.14;57.56;93087.50;4990090;28;20037;-75
2021/08/06 05:45:23;;;;;;;12.75;4.75;;;;;;;26.04;57.44;93090.34;4990633;28;20398;-74
2021/08/06 05:47:51;;;;;;;7.25;5.18;;;;;;;25.93;57.42;93095.84;4988988;28;20033;-74
2021/08/06 05:50:18;;;;;;;5.72;4.20;;;;;;;26.02;56.62;93101.56;4989913;28;20070;-75
2021/08/06 05:52:44;;;;;;;13.10;5.20;;;;;;;25.97;56.34;93090.38;4989578;28;20022;-75
2021/08/06 05:55:10;;;;;;;12.65;5.60;;;;;;;26.15;55.97;93097.16;4986857;28;20045;-75
2021/08/06 05:57:35;;;;;;;12.35;5.55;;;;;;;26.26;55.59;93105.19;4987798;28;20038;-74
2021/08/06 06:00:01;;;;;;;10.00;4.85;;;;;;;26.30;54.39;93098.56;4990408;28;20397;-74
2021/08/06 06:02:26;;;;;;;16.80;6.10;;;;;;;26.20;53.60;93085.09;4983848;28;20571;-75
2021/08/06 06:04:52;;;;;;;12.27;5.55;;;;;;;26.35;53.13;93093.88;4987004;28;20022;-75
2021/08/06 06:07:17;;;;;;;14.77;5.53;;;;;;;26.35;52.46;93112.84;4986179;28;20014;-74
2021/08/06 06:09:42;;;;;;;14.80;5.70;;;;;;;26.22;53.16;93112.59;4988691;28;20049;-74
2021/08/06 06:12:08;;;;;;;9.85;5.20;;;;;;;26.12;53.29;93110.75;4988130;28;20467;-74
2021/08/06 06:14:33;;;;;;;11.70;5.60;;;;;;;26.13;52.79;93112.28;4988567;28;20046;-76
2021/08/06 06:16:59;;;;;;;10.25;5.40;;;;;;;26.06;53.82;93118.53;4987506;28;20038;-75
2021/08/06 06:19:24;;;;;;;20.35;5.40;;;;;;;25.91;52.67;93127.94;4987487;28;20041;-76
2021/08/06 06:21:49;;;;;;;13.88;6.03;;;;;;;25.74;53.54;93134.31;4986117;28;20112;-75
2021/08/06 06:24:15;;;;;;;12.13;5.13;;;;;;;25.84;54.40;93133.44;4986896;28;20382;-75
2021/08/06 06:26:40;;;;;;;12.13;5.20;;;;;;;25.71;53.18;93133.16;4987287;28;20300;-75
2021/08/06 06:29:06;;;;;;;12.65;5.80;;;;;;;25.63;53.51;93120.09;4988215;28;20050;-75
2021/08/06 06:31:31;;;;;;;10.32;6.20;;;;;;;25.86;53.94;93131.09;4988211;28;20053;-75
2021/08/06 06:33:56;;;;;;;13.45;5.45;;;;;;;25.88;53.87;93134.19;4986770;28;20045;-75
2021/08/06 06:36:22;;;;;;;15.82;6.68;;;;;;;25.79;54.92;93128.47;4983034;28;20040;-75
2021/08/06 06:38:47;;;;;;;14.02;5.85;;;;;;;25.70;54.17;93136.28;4987848;28;20116;-75
2021/08/06 06:41:13;;;;;;;10.77;5.63;;;;;;;25.61;53.65;93119.72;4985139;28;20089;-75
2021/08/06 06:43:38;;;;;;;10.48;5.97;;;;;;;25.66;53.58;93132.81;4986589;28;20034;-75
2021/08/06 06:46:04;;;;;;;8.98;5.43;;;;;;;25.67;53.54;93134.34;4985913;28;20064;-76
2021/08/06 06:48:29;;;;;;;11.75;5.65;;;;;;;25.67;53.45;93142.47;4988106;28;20046;-75
2021/08/06 06:50:55;;;;;;;14.35;5.07;;;;;;;25.48;53.10;93115.91;4984942;28;20376;-76
2021/08/06 06:53:21;;;;;;;10.38;5.85;;;;;;;25.70;53.00;93130.88;4987035;28;20368;-75
2021/08/06 06:55:46;;;;;;;15.35;5.78;;;;;;;25.79;52.29;93131.16;4987834;28;20029;-76
2021/08/06 06:58:12;;;;;;;11.73;6.70;;;;;;;25.71;52.38;93113.44;4985157;28;20022;-75
2021/08/06 07:00:37;;;;;;;14.23;6.75;;;;;;;25.83;52.46;93121.84;4987477;28;20073;-75
2021/08/06 07:03:03;;;;;;;12.15;5.72;;;;;;;25.90;52.59;93121.03;4988491;28;20393;-74
2021/08/06 07:05:28;;;;;;;10.25;5.93;;;;;;;25.79;52.09;93123.81;4987847;28;20432;-75
2021/08/06 07:07:54;;;;;;;11.57;6.13;;;;;;;25.90;53.05;93106.72;4985612;28;20500;-75
2021/08/06 07:10:19;;;;;;;11.13;5.30;;;;;;;26.15;52.60;93105.28;4985828;28;20499;-76
2021/08/06 07:12:45;;;;;;;9.40;5.97;;;;;;;26.20;51.16;93102.13;4985895;28;20069;-75
2021/08/06 07:15:13;;;;;;;12.48;6.30;;;;;;;26.12;52.21;93114.22;4988454;28;20562;-75
2021/08/06 07:17:39;;;;;;;10.48;5.45;;;;;;;26.13;51.94;93106.88;4985485;28;20592;-75
2021/08/06 07:20:08;;;;;;;13.15;5.82;;;;;;;26.16;52.12;93101.41;4989209;28;20046;-75
2021/08/06 07:22:34;;;;;;;15.00;6.68;;;;;;;26.41;52.44;93095.75;4984922;28;20109;-75
2021/08/06 07:24:59;;;;;;;12.77;6.43;;;;;;;26.42;50.90;93101.94;4985645;28;20520;-74
2021/08/06 07:27:24;;;;;;;18.88;6.85;;;;;;;26.45;50.76;93096.47;4983830;28;20047;-75
2021/08/06 07:29:50;;;;;;;11.25;5.85;;;;;;;26.57;51.39;93087.81;4984544;28;20049;-74
2021/08/06 07:32:16;;;;;;;15.45;6.40;;;;;;;26.61;51.52;93083.13;4983923;28;20041;-79
2021/08/06 07:34:43;;;;;;;12.13;5.32;;;;;;;26.67;50.40;93094.28;4983166;28;20493;-75
2021/08/06 07:37:09;;;;;;;11.90;5.57;;;;;;;26.49;50.12;93093.72;4987107;28;20037;-75
2021/08/06 07:39:35;;;;;;;22.77;13.57;;;;;;;26.40;50.92;93067.13;4982504;28;20374;-75
2021/08/06 07:42:01;;;;;;;19.27;7.43;;;;;;;26.59;50.96;93084.69;4979658;28;20057;-75
2021/08/06 07:44:26;;;;;;;10.77;6.13;;;;;;;26.72;50.35;93081.03;4980925;28;20446;-75
2021/08/06 07:46:51;;;;;;;16.63;6.63;;;;;;;26.80;50.14;93079.00;4984939;28;20026;-75
2021/08/06 07:49:17;;;;;;;9.80;5.85;;;;;;;26.80;50.45;93084.41;4983769;28;20018;-75
2021/08/06 07:51:43;;;;;;;12.65;6.47;;;;;;;26.77;49.68;93087.19;4985192;28;20057;-73
2021/08/06 07:54:08;;;;;;;11.30;5.45;;;;;;;26.71;49.22;93084.16;4979991;28;20121;-74
2021/08/06 07:56:34;;;;;;;13.23;6.78;;;;;;;26.71;49.09;93087.63;4981491;28;20096;-74
2021/08/06 07:59:00;;;;;;;18.65;7.30;;;;;;;26.52;49.78;93079.38;4984142;28;20092;-75
2021/08/06 08:01:25;;;;;;;12.93;6.03;;;;;;;26.59;49.37;93084.69;4986558;28;20549;-75
2021/08/06 08:03:51;;;;;;;13.25;5.70;;;;;;;26.71;48.57;93086.88;4979954;28;20579;-75
2021/08/06 08:06:16;;;;;;;13.02;6.00;;;;;;;26.72;48.90;93082.97;4984094;28;20465;-75
2021/08/06 08:08:41;;;;;;;14.82;5.55;;;;;;;26.86;49.38;93076.59;4980762;28;20049;-76
2021/08/06 08:11:07;;;;;;;13.75;6.75;;;;;;;26.86;49.06;93066.56;4983532;28;20053;-75
2021/08/06 08:13:33;;;;;;;16.52;7.38;;;;;;;27.04;48.36;93083.34;4980373;28;20014;-74
2021/08/06 08:16:00;;;;;;;10.52;6.88;;;;;;;27.01;48.22;93073.31;4980138;28;20056;-76
2021/08/06 08:18:26;;;;;;;10.88;7.40;;;;;;;27.04;48.35;93077.91;4977212;28;20038;-75
2021/08/06 08:20:51;;;;;;;13.43;6.60;;;;;;;27.13;48.06;93072.75;4980757;28;20034;-76
2021/08/06 08:23:18;;;;;;;13.98;6.80;;;;;;;27.25;47.63;93065.22;4980045;28;20132;-73
2021/08/06 08:25:48;;;;;;;9.93;6.43;;;;;;;27.33;47.65;93077.50;4981332;28;20497;-74
2021/08/06 08:28:14;;;;;;;17.27;7.72;;;;;;;27.20;47.88;93074.59;4985999;28;20026;-74
2021/08/06 08:30:39;;;;;;;12.85;8.75;;;;;;;27.02;47.34;93069.44;4981724;28;20080;-74
2021/08/06 08:33:05;;;;;;;9.85;7.85;;;;;;;27.02;47.11;93064.00;4984901;28;20034;-75
2021/08/06 08:35:31;;;;;;;10.30;8.25;;;;;;;27.10;46.95;93067.38;4984848;28;20049;-75
2021/08/06 08:41:18;;;;;;;15.30;9.18;;;;;;;27.23;47.38;93048.56;4986535;28;20101;-74
2021/08/06 08:43:44;;;;;;;16.48;9.05;;;;;;;27.31;47.07;93058.94;4984418;28;20097;-75
2021/08/06 08:46:11;;;;;;;12.68;8.77;;;;;;;27.38;46.70;93047.19;4986471;28;20481;-77
2021/08/06 08:48:37;;;;;;;10.63;8.32;;;;;;;27.43;47.45;93060.28;4983881;28;20792;-75
2021/08/06 08:51:04;;;;;;;11.40;8.35;;;;;;;27.40;47.09;93071.97;4983529;28;20085;-74
2021/08/06 08:53:30;;;;;;;11.77;9.07;;;;;;;27.35;46.77;93064.28;4985992;28;20038;-75
2021/08/06 08:55:56;;;;;;;13.00;9.40;;;;;;;27.33;47.53;93061.22;4984321;28;20050;-76
2021/08/06 08:58:22;;;;;;;12.23;9.13;;;;;;;27.33;46.38;93070.13;4986202;28;20036;-75
2021/08/06 09:00:47;;;;;;;9.32;8.35;;;;;;;27.31;46.67;93063.59;4965467;28;20918;-75
2021/08/06 09:03:46;;;;;;;10.32;9.23;;;;;;;27.42;46.49;93062.22;4985182;28;20382;-74
2021/08/06 09:06:12;;;;;;;13.63;7.93;;;;;;;27.45;47.09;93037.00;4986896;28;20050;-76
2021/08/06 09:08:38;;;;;;;15.10;9.07;;;;;;;27.72;45.40;93049.75;4988167;28;20049;-76
2021/08/06 09:11:24;;;;;;;11.80;9.98;;;;;;;27.57;44.59;93024.78;4982462;28;20683;-75
2021/08/06 09:13:50;;;;;;;11.70;10.25;;;;;;;27.73;43.71;93052.06;4989540;28;20022;-75
2021/08/06 09:16:16;;;;;;;20.70;9.90;;;;;;;27.72;44.43;93074.16;4986146;28;20072;-75
2021/08/06 09:18:42;;;;;;;11.43;10.23;;;;;;;27.58;44.05;93072.47;4984741;28;20133;-75
2021/08/06 09:21:16;;;;;;;10.32;9.05;;;;;;;27.42;43.42;93058.72;4986225;28;20089;-75
2021/08/06 09:23:45;;;;;;;11.85;9.73;;;;;;;27.55;44.10;93062.44;4986637;28;20092;-75
2021/08/06 09:26:27;;;;;;;13.90;9.82;;;;;;;27.61;43.53;93060.03;4984734;28;20035;-75
2021/08/06 09:29:06;;;;;;;10.82;9.23;;;;;;;27.76;42.99;93056.63;4987104;28;20114;-76
2021/08/06 09:31:35;;;;;;;11.77;10.07;;;;;;;27.88;41.66;93053.34;4988087;28;20084;-75
2021/08/06 09:34:31;;;;;;;12.20;9.93;;;;;;;27.97;41.04;93060.94;4985017;28;20065;-75
2021/08/06 09:37:10;;;;;;;16.77;11.13;;;;;;;27.95;40.81;93060.59;4987903;28;20145;-75
2021/08/06 09:39:39;;;;;;;18.50;10.10;;;;;;;27.65;41.11;93061.50;4986302;28;20043;-74
2021/08/06 09:42:35;;;;;;;14.50;10.75;;;;;;;27.88;40.83;93063.44;4983164;28;20132;-74
2021/08/06 09:45:14;;;;;;;12.80;10.65;;;;;;;27.99;40.36;93059.34;5001502;28;20050;-74
2021/08/06 09:47:42;;;;;;;10.57;9.23;;;;;;;27.92;40.40;93066.84;4982902;28;20564;-74
2021/08/06 09:50:18;;;;;;;11.93;9.70;;;;;;;27.80;40.76;93040.31;4984668;28;20042;-74
2021/08/06 09:52:53;;;;;;;10.23;8.88;;;;;;;27.69;40.37;93061.44;4984626;28;20113;-75
2021/08/06 09:55:31;;;;;;;16.83;11.27;;;;;;;27.76;40.23;93061.31;4985969;28;20912;-75
2021/08/06 09:57:58;;;;;;;13.65;10.00;;;;;;;27.81;40.54;93053.44;4986055;28;20402;-75
2021/08/06 10:00:26;;;;;;;9.73;8.73;;;;;;;27.96;39.89;93053.97;4988263;28;20248;-75
2021/08/06 10:02:54;;;;;;;8.90;8.10;;;;;;;28.06;40.06;93063.09;4984614;28;20049;-72
2021/08/06 10:05:22;;;;;;;10.63;8.38;;;;;;;27.76;39.16;93055.91;4986030;28;20042;-73
2021/08/06 10:07:50;;;;;;;10.73;8.43;;;;;;;27.78;39.65;93062.44;4985813;28;20496;-74
2021/08/06 10:10:18;;;;;;;9.65;8.63;;;;;;;27.77;38.89;93047.31;4986128;28;20488;-74
2021/08/06 10:12:45;;;;;;;9.13;7.68;;;;;;;27.82;38.47;93030.56;4981332;28;20767;-74
2021/08/06 10:15:11;;;;;;;8.65;7.55;;;;;;;27.88;38.68;93020.75;4982563;28;20050;-73
2021/08/06 10:17:37;;;;;;;8.60;7.78;;;;;;;27.96;38.07;93027.56;4985938;28;20045;-73
2021/08/06 10:20:05;;;;;;;11.13;7.95;;;;;;;28.10;38.31;93036.66;4986483;28;20058;-74
2021/08/06 10:22:31;;;;;;;13.20;8.45;;;;;;;28.07;38.30;93032.81;4987648;28;20030;-74
2021/08/06 10:24:57;;;;;;;10.73;8.20;;;;;;;27.88;37.50;93018.03;4985792;28;20479;-75
2021/08/06 10:27:30;;;;;;;12.18;7.00;;;;;;;27.93;38.24;93022.97;4985393;28;20046;-74
2021/08/06 10:30:10;;;;;;;12.80;6.93;;;;;;;27.99;38.80;93004.25;4967767;28;20631;-73
2021/08/06 10:32:38;;;;;;;7.43;5.60;;;;;;;28.13;38.54;93024.97;4986884;28;20049;-74
2021/08/06 10:35:08;;;;;;;9.13;6.68;;;;;;;28.15;38.46;93028.78;4987064;28;20519;-74
2021/08/06 10:37:54;;;;;;;7.60;5.75;;;;;;;28.22;38.23;93019.75;4985070;28;20030;-74
2021/08/06 10:40:32;;;;;;;6.43;5.47;;;;;;;28.14;37.92;93027.28;4985094;28;20152;-75
2021/08/06 10:43:18;;;;;;;7.70;6.13;;;;;;;28.20;37.35;93019.41;5001204;28;20129;-74
2021/08/06 10:45:46;;;;;;;6.45;5.60;;;;;;;28.20;37.70;93008.56;4979988;28;20042;-74
2021/08/06 10:48:26;;;;;;;8.85;5.75;;;;;;;28.13;37.45;93014.13;4989862;28;20501;-74
2021/08/06 10:51:24;;;;;;;7.50;5.80;;;;;;;28.22;36.62;93006.16;4984219;28;20556;-75
2021/08/06 10:53:55;;;;;;;5.38;4.82;;;;;;;28.27;37.29;93008.41;4985080;28;20397;-76
2021/08/06 10:56:27;;;;;;;10.27;5.35;;;;;;;28.25;36.82;93016.19;4984663;28;20512;-74
2021/08/06 10:58:57;;;;;;;6.60;4.60;;;;;;;28.32;36.46;93016.06;4985904;28;20409;-76
2021/08/06 11:01:32;;;;;;;5.63;5.13;;;;;;;28.39;37.61;92992.22;4988580;28;20157;-74
2021/08/06 11:04:01;;;;;;;6.72;4.78;;;;;;;28.55;36.49;93002.38;4999442;28;20038;-74
2021/08/06 11:06:47;;;;;;;5.35;4.70;;;;;;;28.68;36.29;92994.34;4984213;28;20037;-73
2021/08/06 11:09:25;;;;;;;6.40;4.18;;;;;;;28.58;35.95;92973.59;4986625;28;20041;-74
2021/08/06 11:11:58;;;;;;;6.38;3.90;;;;;;;28.83;35.95;93001.75;4984931;28;20611;-75
2021/08/06 11:14:29;;;;;;;6.65;3.50;;;;;;;28.83;35.60;92990.16;4987552;28;20424;-74
2021/08/06 11:17:11;;;;;;;5.85;3.33;;;;;;;28.68;35.10;92997.81;4986181;28;20034;-74
2021/08/06 11:19:39;;;;;;;5.82;4.13;;;;;;;28.63;35.41;92992.88;4983705;28;21077;-75
2021/08/06 11:22:07;;;;;;;5.47;3.70;;;;;;;28.78;35.85;92988.66;4985219;28;20037;-75
2021/08/06 11:24:41;;;;;;;6.60;3.83;;;;;;;28.87;34.21;92996.28;4982921;28;20674;-77
2021/08/06 11:27:08;;;;;;;8.18;4.28;;;;;;;28.78;34.15;92985.22;4984486;28;20538;-74
2021/08/06 11:29:34;;;;;;;5.85;3.28;;;;;;;28.47;34.61;92984.69;4980202;28;20317;-77
2021/08/06 11:32:03;;;;;;;10.35;3.20;;;;;;;28.33;34.88;92982.28;4982666;28;20382;-75
2021/08/06 11:34:29;;;;;;;5.68;2.90;;;;;;;28.39;36.13;92984.06;4987301;28;20021;-76